sensor_id;sensor_type;location;lat;lon;timestamp;P1;durP1;ratioP1;P2;durP2;ratioP2
6735;SDS011;3405;50.576;12.364;2023-07-28T00:00:29;1.20;;;1.10;;
6735;SDS011;3405;50.576;12.364;2023-07-28T00:02:55;1.33;;;1.20;;
6735;SDS011;3405;50.576;12.364;2023-07-28T00:05:21;1.08;;;0.98;;
6735;SDS011;3405;50.576;12.364;2023-07-28T00:07:47;1.73;;;1.38;;
6735;SDS011;3405;50.576;12.364;2023-07-28T00:10:13;1.63;;;1.30;;
6735;SDS011;3405;50.576;12.364;2023-07-28T00:12:39;2.20;;;1.27;;
6735;SDS011;3405;50.576;12.364;2023-07-28T00:15:05;1.20;;;0.93;;
6735;SDS011;3405;50.576;12.364;2023-07-28T00:17:31;1.48;;;1.15;;
6735;SDS011;3405;50.576;12.364;2023-07-28T00:19:57;1.83;;;1.00;;
6735;SDS011;3405;50.576;12.364;2023-07-28T00:22:23;1.45;;;1.10;;
6735;SDS011;3405;50.576;12.364;2023-07-28T00:24:48;1.40;;;1.30;;
6735;SDS011;3405;50.576;12.364;2023-07-28T00:27:14;1.20;;;1.10;;
6735;SDS011;3405;50.576;12.364;2023-07-28T00:29:41;1.98;;;1.10;;
6735;SDS011;3405;50.576;12.364;2023-07-28T00:32:07;1.33;;;1.13;;
6735;SDS011;3405;50.576;12.364;2023-07-28T00:34:33;1.25;;;1.15;;
6735;SDS011;3405;50.576;12.364;2023-07-28T00:36:59;3.50;;;1.48;;
6735;SDS011;3405;50.576;12.364;2023-07-28T00:39:25;2.53;;;1.00;;
6735;SDS011;3405;50.576;12.364;2023-07-28T00:41:50;1.05;;;1.00;;
6735;SDS011;3405;50.576;12.364;2023-07-28T00:44:16;1.77;;;1.00;;
6735;SDS011;3405;50.576;12.364;2023-07-28T00:46:43;1.55;;;1.23;;
6735;SDS011;3405;50.576;12.364;2023-07-28T00:49:09;0.85;;;0.85;;
6735;SDS011;3405;50.576;12.364;2023-07-28T00:51:35;1.65;;;1.17;;
6735;SDS011;3405;50.576;12.364;2023-07-28T00:54:02;2.75;;;1.30;;
6735;SDS011;3405;50.576;12.364;2023-07-28T00:56:30;1.00;;;0.90;;
6735;SDS011;3405;50.576;12.364;2023-07-28T00:58:56;0.93;;;0.93;;
6735;SDS011;3405;50.576;12.364;2023-07-28T01:01:22;0.98;;;0.98;;
6735;SDS011;3405;50.576;12.364;2023-07-28T01:03:49;1.58;;;1.17;;
6735;SDS011;3405;50.576;12.364;2023-07-28T01:11:07;1.23;;;1.10;;
6735;SDS011;3405;50.576;12.364;2023-07-28T01:13:33;1.30;;;1.20;;
6735;SDS011;3405;50.576;12.364;2023-07-28T01:15:59;2.60;;;1.10;;
6735;SDS011;3405;50.576;12.364;2023-07-28T01:18:26;1.20;;;1.10;;
6735;SDS011;3405;50.576;12.364;2023-07-28T01:20:52;0.80;;;0.80;;
6735;SDS011;3405;50.576;12.364;2023-07-28T01:23:26;1.20;;;1.10;;
6735;SDS011;3405;50.576;12.364;2023-07-28T01:26:06;2.42;;;0.98;;
6735;SDS011;3405;50.576;12.364;2023-07-28T01:28:34;0.98;;;0.80;;
6735;SDS011;3405;50.576;12.364;2023-07-28T01:31:03;1.40;;;1.10;;
6735;SDS011;3405;50.576;12.364;2023-07-28T01:33:30;1.20;;;1.10;;
6735;SDS011;3405;50.576;12.364;2023-07-28T01:35:55;1.10;;;1.00;;
6735;SDS011;3405;50.576;12.364;2023-07-28T01:38:23;2.35;;;1.10;;
6735;SDS011;3405;50.576;12.364;2023-07-28T01:40:49;2.22;;;1.15;;
6735;SDS011;3405;50.576;12.364;2023-07-28T01:43:15;2.35;;;1.05;;
6735;SDS011;3405;50.576;12.364;2023-07-28T01:45:41;2.22;;;1.00;;
6735;SDS011;3405;50.576;12.364;2023-07-28T01:48:07;1.58;;;1.10;;
6735;SDS011;3405;50.576;12.364;2023-07-28T01:50:36;1.20;;;1.10;;
6735;SDS011;3405;50.576;12.364;2023-07-28T01:53:02;1.35;;;1.25;;
6735;SDS011;3405;50.576;12.364;2023-07-28T01:55:28;1.40;;;1.10;;
6735;SDS011;3405;50.576;12.364;2023-07-28T01:57:55;1.67;;;1.20;;
6735;SDS011;3405;50.576;12.364;2023-07-28T02:00:21;1.13;;;1.02;;
6735;SDS011;3405;50.576;12.364;2023-07-28T02:02:47;7.78;;;1.40;;
6735;SDS011;3405;50.576;12.364;2023-07-28T02:05:13;0.98;;;0.98;;
6735;SDS011;3405;50.576;12.364;2023-07-28T02:07:39;1.20;;;1.10;;
6735;SDS011;3405;50.576;12.364;2023-07-28T02:10:06;1.67;;;1.00;;
6735;SDS011;3405;50.576;12.364;2023-07-28T02:12:32;0.80;;;0.80;;
6735;SDS011;3405;50.576;12.364;2023-07-28T02:14:58;1.90;;;0.90;;
6735;SDS011;3405;50.576;12.364;2023-07-28T02:17:23;0.90;;;0.90;;
6735;SDS011;3405;50.576;12.364;2023-07-28T02:19:49;1.58;;;0.90;;
6735;SDS011;3405;50.576;12.364;2023-07-28T02:22:15;0.90;;;0.90;;
6735;SDS011;3405;50.576;12.364;2023-07-28T02:24:41;1.30;;;0.90;;
6735;SDS011;3405;50.576;12.364;2023-07-28T02:27:07;1.13;;;0.77;;
6735;SDS011;3405;50.576;12.364;2023-07-28T02:29:33;0.85;;;0.85;;
6735;SDS011;3405;50.576;12.364;2023-07-28T02:31:59;0.90;;;0.90;;
6735;SDS011;3405;50.576;12.364;2023-07-28T02:34:25;0.90;;;0.90;;
6735;SDS011;3405;50.576;12.364;2023-07-28T02:36:51;0.82;;;0.80;;
6735;SDS011;3405;50.576;12.364;2023-07-28T02:39:17;1.65;;;1.00;;
6735;SDS011;3405;50.576;12.364;2023-07-28T02:41:43;1.50;;;0.93;;
6735;SDS011;3405;50.576;12.364;2023-07-28T02:44:08;0.90;;;0.80;;
6735;SDS011;3405;50.576;12.364;2023-07-28T02:46:35;1.40;;;0.80;;
6735;SDS011;3405;50.576;12.364;2023-07-28T02:49:02;1.10;;;0.60;;
6735;SDS011;3405;50.576;12.364;2023-07-28T02:51:28;0.88;;;0.70;;
6735;SDS011;3405;50.576;12.364;2023-07-28T02:53:54;1.13;;;1.00;;
6735;SDS011;3405;50.576;12.364;2023-07-28T02:56:20;0.98;;;0.75;;
6735;SDS011;3405;50.576;12.364;2023-07-28T02:58:47;0.80;;;0.80;;
6735;SDS011;3405;50.576;12.364;2023-07-28T03:01:13;0.82;;;0.70;;
6735;SDS011;3405;50.576;12.364;2023-07-28T03:03:38;0.95;;;0.80;;
6735;SDS011;3405;50.576;12.364;2023-07-28T03:06:04;1.52;;;0.75;;
6735;SDS011;3405;50.576;12.364;2023-07-28T03:08:30;1.80;;;0.82;;
6735;SDS011;3405;50.576;12.364;2023-07-28T03:10:57;1.00;;;0.77;;
6735;SDS011;3405;50.576;12.364;2023-07-28T03:13:23;0.80;;;0.80;;
6735;SDS011;3405;50.576;12.364;2023-07-28T03:15:49;1.38;;;0.90;;
6735;SDS011;3405;50.576;12.364;2023-07-28T03:18:15;0.80;;;0.80;;
6735;SDS011;3405;50.576;12.364;2023-07-28T03:20:40;0.70;;;0.70;;
6735;SDS011;3405;50.576;12.364;2023-07-28T03:23:06;0.50;;;0.50;;
6735;SDS011;3405;50.576;12.364;2023-07-28T03:25:32;1.00;;;0.65;;
6735;SDS011;3405;50.576;12.364;2023-07-28T03:27:58;0.60;;;0.60;;
6735;SDS011;3405;50.576;12.364;2023-07-28T03:30:24;0.90;;;0.70;;
6735;SDS011;3405;50.576;12.364;2023-07-28T03:32:50;2.33;;;0.70;;
6735;SDS011;3405;50.576;12.364;2023-07-28T03:35:16;1.13;;;0.70;;
6735;SDS011;3405;50.576;12.364;2023-07-28T03:37:42;1.67;;;0.80;;
6735;SDS011;3405;50.576;12.364;2023-07-28T03:40:08;1.55;;;0.50;;
6735;SDS011;3405;50.576;12.364;2023-07-28T03:42:34;1.80;;;0.80;;
6735;SDS011;3405;50.576;12.364;2023-07-28T03:45:00;0.73;;;0.73;;
6735;SDS011;3405;50.576;12.364;2023-07-28T03:47:26;2.15;;;0.93;;
6735;SDS011;3405;50.576;12.364;2023-07-28T03:49:52;1.45;;;0.88;;
6735;SDS011;3405;50.576;12.364;2023-07-28T03:52:18;1.95;;;0.88;;
6735;SDS011;3405;50.576;12.364;2023-07-28T03:54:44;2.53;;;1.20;;
6735;SDS011;3405;50.576;12.364;2023-07-28T03:57:10;1.13;;;0.82;;
6735;SDS011;3405;50.576;12.364;2023-07-28T03:59:36;0.65;;;0.60;;
6735;SDS011;3405;50.576;12.364;2023-07-28T04:02:02;1.15;;;0.82;;
6735;SDS011;3405;50.576;12.364;2023-07-28T04:04:28;1.05;;;0.60;;
6735;SDS011;3405;50.576;12.364;2023-07-28T04:06:54;0.52;;;0.52;;
6735;SDS011;3405;50.576;12.364;2023-07-28T04:09:20;1.85;;;0.93;;
6735;SDS011;3405;50.576;12.364;2023-07-28T04:11:46;1.17;;;0.82;;
6735;SDS011;3405;50.576;12.364;2023-07-28T04:14:12;0.80;;;0.80;;
6735;SDS011;3405;50.576;12.364;2023-07-28T04:16:39;1.30;;;0.70;;
6735;SDS011;3405;50.576;12.364;2023-07-28T04:19:05;1.85;;;0.80;;
6735;SDS011;3405;50.576;12.364;2023-07-28T04:21:31;1.77;;;0.90;;
6735;SDS011;3405;50.576;12.364;2023-07-28T04:23:57;1.00;;;0.80;;
6735;SDS011;3405;50.576;12.364;2023-07-28T04:26:23;0.77;;;0.65;;
6735;SDS011;3405;50.576;12.364;2023-07-28T04:28:49;2.30;;;0.85;;
6735;SDS011;3405;50.576;12.364;2023-07-28T04:31:15;0.60;;;0.60;;
6735;SDS011;3405;50.576;12.364;2023-07-28T04:33:41;1.00;;;0.73;;
6735;SDS011;3405;50.576;12.364;2023-07-28T04:36:08;1.45;;;0.85;;
6735;SDS011;3405;50.576;12.364;2023-07-28T04:38:34;2.42;;;0.90;;
6735;SDS011;3405;50.576;12.364;2023-07-28T04:41:00;1.45;;;0.95;;
6735;SDS011;3405;50.576;12.364;2023-07-28T04:43:26;1.83;;;0.70;;
6735;SDS011;3405;50.576;12.364;2023-07-28T04:45:52;3.60;;;0.82;;
6735;SDS011;3405;50.576;12.364;2023-07-28T04:48:17;0.90;;;0.60;;
6735;SDS011;3405;50.576;12.364;2023-07-28T04:50:44;2.05;;;0.60;;
6735;SDS011;3405;50.576;12.364;2023-07-28T04:53:10;0.55;;;0.55;;
6735;SDS011;3405;50.576;12.364;2023-07-28T04:55:36;0.88;;;0.63;;
6735;SDS011;3405;50.576;12.364;2023-07-28T04:58:01;1.08;;;0.60;;
6735;SDS011;3405;50.576;12.364;2023-07-28T05:00:27;0.57;;;0.50;;
6735;SDS011;3405;50.576;12.364;2023-07-28T05:02:53;0.75;;;0.65;;
6735;SDS011;3405;50.576;12.364;2023-07-28T05:05:19;1.58;;;0.70;;
6735;SDS011;3405;50.576;12.364;2023-07-28T05:07:46;1.33;;;0.70;;
6735;SDS011;3405;50.576;12.364;2023-07-28T05:10:11;0.90;;;0.60;;
6735;SDS011;3405;50.576;12.364;2023-07-28T05:12:37;1.30;;;0.85;;
6735;SDS011;3405;50.576;12.364;2023-07-28T05:15:04;5.47;;;1.10;;
6735;SDS011;3405;50.576;12.364;2023-07-28T05:17:30;3.17;;;0.93;;
6735;SDS011;3405;50.576;12.364;2023-07-28T05:19:57;1.45;;;0.80;;
6735;SDS011;3405;50.576;12.364;2023-07-28T05:22:22;1.60;;;0.88;;
6735;SDS011;3405;50.576;12.364;2023-07-28T05:24:48;0.73;;;0.40;;
6735;SDS011;3405;50.576;12.364;2023-07-28T05:27:14;0.63;;;0.50;;
6735;SDS011;3405;50.576;12.364;2023-07-28T05:29:40;1.15;;;0.55;;
6735;SDS011;3405;50.576;12.364;2023-07-28T05:32:06;1.95;;;0.50;;
6735;SDS011;3405;50.576;12.364;2023-07-28T05:34:32;3.80;;;0.55;;
6735;SDS011;3405;50.576;12.364;2023-07-28T05:36:59;4.32;;;0.57;;
6735;SDS011;3405;50.576;12.364;2023-07-28T05:39:25;3.67;;;0.47;;
6735;SDS011;3405;50.576;12.364;2023-07-28T05:41:50;4.05;;;0.60;;
6735;SDS011;3405;50.576;12.364;2023-07-28T05:44:16;1.90;;;0.52;;
6735;SDS011;3405;50.576;12.364;2023-07-28T05:46:42;1.33;;;0.65;;
6735;SDS011;3405;50.576;12.364;2023-07-28T05:49:09;4.07;;;1.00;;
6735;SDS011;3405;50.576;12.364;2023-07-28T05:51:35;0.45;;;0.45;;
6735;SDS011;3405;50.576;12.364;2023-07-28T05:54:01;0.85;;;0.30;;
6735;SDS011;3405;50.576;12.364;2023-07-28T05:56:27;0.52;;;0.40;;
6735;SDS011;3405;50.576;12.364;2023-07-28T05:58:55;2.20;;;0.40;;
6735;SDS011;3405;50.576;12.364;2023-07-28T06:01:21;0.40;;;0.30;;
6735;SDS011;3405;50.576;12.364;2023-07-28T06:03:47;0.52;;;0.40;;
6735;SDS011;3405;50.576;12.364;2023-07-28T06:06:13;0.73;;;0.70;;
6735;SDS011;3405;50.576;12.364;2023-07-28T06:08:39;3.17;;;0.40;;
6735;SDS011;3405;50.576;12.364;2023-07-28T06:11:06;2.05;;;0.40;;
6735;SDS011;3405;50.576;12.364;2023-07-28T06:13:32;0.75;;;0.40;;
6735;SDS011;3405;50.576;12.364;2023-07-28T06:15:58;2.17;;;0.50;;
6735;SDS011;3405;50.576;12.364;2023-07-28T06:18:24;0.95;;;0.30;;
6735;SDS011;3405;50.576;12.364;2023-07-28T06:20:50;0.55;;;0.15;;
6735;SDS011;3405;50.576;12.364;2023-07-28T06:23:16;1.40;;;0.28;;
6735;SDS011;3405;50.576;12.364;2023-07-28T06:25:42;3.33;;;0.50;;
6735;SDS011;3405;50.576;12.364;2023-07-28T06:28:10;0.38;;;0.32;;
6735;SDS011;3405;50.576;12.364;2023-07-28T06:30:36;0.75;;;0.40;;
6735;SDS011;3405;50.576;12.364;2023-07-28T06:33:03;0.60;;;0.43;;
6735;SDS011;3405;50.576;12.364;2023-07-28T06:35:29;5.22;;;0.73;;
6735;SDS011;3405;50.576;12.364;2023-07-28T06:37:55;1.75;;;0.47;;
6735;SDS011;3405;50.576;12.364;2023-07-28T06:40:20;3.53;;;0.50;;
6735;SDS011;3405;50.576;12.364;2023-07-28T06:42:46;3.33;;;0.70;;
6735;SDS011;3405;50.576;12.364;2023-07-28T06:45:12;0.35;;;0.22;;
6735;SDS011;3405;50.576;12.364;2023-07-28T06:47:39;2.83;;;0.40;;
6735;SDS011;3405;50.576;12.364;2023-07-28T06:50:05;1.38;;;0.15;;
6735;SDS011;3405;50.576;12.364;2023-07-28T06:52:31;0.50;;;0.30;;
6735;SDS011;3405;50.576;12.364;2023-07-28T06:54:57;0.30;;;0.30;;
6735;SDS011;3405;50.576;12.364;2023-07-28T06:57:23;0.75;;;0.40;;
6735;SDS011;3405;50.576;12.364;2023-07-28T06:59:49;1.10;;;0.38;;
6735;SDS011;3405;50.576;12.364;2023-07-28T07:02:15;0.45;;;0.30;;
6735;SDS011;3405;50.576;12.364;2023-07-28T07:04:41;0.25;;;0.25;;
6735;SDS011;3405;50.576;12.364;2023-07-28T07:07:07;0.85;;;0.50;;
6735;SDS011;3405;50.576;12.364;2023-07-28T07:09:33;1.13;;;0.30;;
6735;SDS011;3405;50.576;12.364;2023-07-28T07:11:59;0.20;;;0.20;;
6735;SDS011;3405;50.576;12.364;2023-07-28T07:14:25;1.92;;;0.40;;
6735;SDS011;3405;50.576;12.364;2023-07-28T07:16:51;0.22;;;0.22;;
6735;SDS011;3405;50.576;12.364;2023-07-28T07:19:17;0.77;;;0.50;;
6735;SDS011;3405;50.576;12.364;2023-07-28T07:21:44;0.38;;;0.30;;
6735;SDS011;3405;50.576;12.364;2023-07-28T07:24:10;0.40;;;0.40;;
6735;SDS011;3405;50.576;12.364;2023-07-28T07:26:38;0.60;;;0.30;;
6735;SDS011;3405;50.576;12.364;2023-07-28T07:29:05;0.75;;;0.30;;
6735;SDS011;3405;50.576;12.364;2023-07-28T07:31:31;0.40;;;0.30;;
6735;SDS011;3405;50.576;12.364;2023-07-28T07:33:56;0.52;;;0.40;;
6735;SDS011;3405;50.576;12.364;2023-07-28T07:36:22;0.38;;;0.20;;
6735;SDS011;3405;50.576;12.364;2023-07-28T07:38:48;0.57;;;0.38;;
6735;SDS011;3405;50.576;12.364;2023-07-28T07:41:14;1.60;;;0.30;;
6735;SDS011;3405;50.576;12.364;2023-07-28T07:43:47;1.90;;;0.50;;
6735;SDS011;3405;50.576;12.364;2023-07-28T07:46:14;0.30;;;0.30;;
6735;SDS011;3405;50.576;12.364;2023-07-28T07:48:40;0.73;;;0.30;;
6735;SDS011;3405;50.576;12.364;2023-07-28T07:51:07;0.60;;;0.30;;
6735;SDS011;3405;50.576;12.364;2023-07-28T07:53:33;1.50;;;0.30;;
6735;SDS011;3405;50.576;12.364;2023-07-28T07:56:01;0.75;;;0.40;;
6735;SDS011;3405;50.576;12.364;2023-07-28T07:58:27;2.38;;;0.30;;
6735;SDS011;3405;50.576;12.364;2023-07-28T08:00:53;0.50;;;0.50;;
6735;SDS011;3405;50.576;12.364;2023-07-28T08:03:20;0.60;;;0.60;;
6735;SDS011;3405;50.576;12.364;2023-07-28T08:05:45;0.60;;;0.45;;
6735;SDS011;3405;50.576;12.364;2023-07-28T08:08:12;1.80;;;0.40;;
6735;SDS011;3405;50.576;12.364;2023-07-28T08:10:41;0.30;;;0.30;;
6735;SDS011;3405;50.576;12.364;2023-07-28T08:13:07;0.30;;;0.30;;
6735;SDS011;3405;50.576;12.364;2023-07-28T08:15:33;0.40;;;0.40;;
6735;SDS011;3405;50.576;12.364;2023-07-28T08:17:59;0.57;;;0.50;;
6735;SDS011;3405;50.576;12.364;2023-07-28T08:20:25;3.08;;;0.60;;
6735;SDS011;3405;50.576;12.364;2023-07-28T08:22:51;0.43;;;0.43;;
6735;SDS011;3405;50.576;12.364;2023-07-28T08:25:17;0.75;;;0.75;;
6735;SDS011;3405;50.576;12.364;2023-07-28T08:27:43;0.63;;;0.50;;
6735;SDS011;3405;50.576;12.364;2023-07-28T08:30:09;0.85;;;0.80;;
6735;SDS011;3405;50.576;12.364;2023-07-28T08:32:35;0.50;;;0.50;;
6735;SDS011;3405;50.576;12.364;2023-07-28T08:35:02;0.70;;;0.40;;
6735;SDS011;3405;50.576;12.364;2023-07-28T08:37:28;0.80;;;0.60;;
6735;SDS011;3405;50.576;12.364;2023-07-28T08:39:54;0.55;;;0.55;;
6735;SDS011;3405;50.576;12.364;2023-07-28T08:42:20;0.70;;;0.57;;
6735;SDS011;3405;50.576;12.364;2023-07-28T08:44:46;0.40;;;0.40;;
6735;SDS011;3405;50.576;12.364;2023-07-28T08:47:12;0.60;;;0.50;;
6735;SDS011;3405;50.576;12.364;2023-07-28T08:49:39;1.38;;;0.70;;
6735;SDS011;3405;50.576;12.364;2023-07-28T08:52:05;0.50;;;0.50;;
6735;SDS011;3405;50.576;12.364;2023-07-28T08:54:31;0.50;;;0.50;;
6735;SDS011;3405;50.576;12.364;2023-07-28T08:56:57;0.88;;;0.60;;
6735;SDS011;3405;50.576;12.364;2023-07-28T08:59:24;0.93;;;0.73;;
6735;SDS011;3405;50.576;12.364;2023-07-28T09:01:51;0.57;;;0.57;;
6735;SDS011;3405;50.576;12.364;2023-07-28T09:04:17;0.50;;;0.50;;
6735;SDS011;3405;50.576;12.364;2023-07-28T09:06:46;0.63;;;0.63;;
6735;SDS011;3405;50.576;12.364;2023-07-28T09:09:16;0.50;;;0.50;;
6735;SDS011;3405;50.576;12.364;2023-07-28T09:11:45;0.77;;;0.45;;
6735;SDS011;3405;50.576;12.364;2023-07-28T09:14:12;2.47;;;0.65;;
6735;SDS011;3405;50.576;12.364;2023-07-28T09:16:38;0.75;;;0.55;;
6735;SDS011;3405;50.576;12.364;2023-07-28T09:19:05;0.55;;;0.50;;
6735;SDS011;3405;50.576;12.364;2023-07-28T09:21:32;0.70;;;0.40;;
6735;SDS011;3405;50.576;12.364;2023-07-28T09:24:05;3.25;;;0.70;;
6735;SDS011;3405;50.576;12.364;2023-07-28T09:29:14;0.55;;;0.55;;
6735;SDS011;3405;50.576;12.364;2023-07-28T09:31:40;1.33;;;0.60;;
6735;SDS011;3405;50.576;12.364;2023-07-28T09:34:07;1.40;;;0.80;;
6735;SDS011;3405;50.576;12.364;2023-07-28T09:36:33;3.75;;;0.70;;
6735;SDS011;3405;50.576;12.364;2023-07-28T09:39:00;0.50;;;0.50;;
6735;SDS011;3405;50.576;12.364;2023-07-28T09:41:27;0.50;;;0.50;;
6735;SDS011;3405;50.576;12.364;2023-07-28T09:43:54;2.05;;;0.70;;
6735;SDS011;3405;50.576;12.364;2023-07-28T09:46:22;0.73;;;0.73;;
6735;SDS011;3405;50.576;12.364;2023-07-28T09:48:48;0.63;;;0.63;;
6735;SDS011;3405;50.576;12.364;2023-07-28T09:51:18;0.50;;;0.50;;
6735;SDS011;3405;50.576;12.364;2023-07-28T09:53:58;0.80;;;0.80;;
6735;SDS011;3405;50.576;12.364;2023-07-28T09:56:27;0.75;;;0.75;;
6735;SDS011;3405;50.576;12.364;2023-07-28T09:58:54;0.65;;;0.60;;
6735;SDS011;3405;50.576;12.364;2023-07-28T10:01:22;1.80;;;0.90;;
6735;SDS011;3405;50.576;12.364;2023-07-28T10:03:49;1.60;;;0.80;;
6735;SDS011;3405;50.576;12.364;2023-07-28T10:06:15;1.38;;;0.93;;
6735;SDS011;3405;50.576;12.364;2023-07-28T10:08:44;3.08;;;1.10;;
6735;SDS011;3405;50.576;12.364;2023-07-28T10:11:11;3.15;;;1.15;;
6735;SDS011;3405;50.576;12.364;2023-07-28T10:13:41;4.70;;;1.40;;
6735;SDS011;3405;50.576;12.364;2023-07-28T10:16:08;5.57;;;1.77;;
6735;SDS011;3405;50.576;12.364;2023-07-28T10:18:34;5.63;;;1.67;;
6735;SDS011;3405;50.576;12.364;2023-07-28T10:21:09;4.05;;;1.35;;
6735;SDS011;3405;50.576;12.364;2023-07-28T10:23:38;3.67;;;1.30;;
6735;SDS011;3405;50.576;12.364;2023-07-28T10:26:04;1.17;;;0.85;;
6735;SDS011;3405;50.576;12.364;2023-07-28T10:30:57;1.10;;;0.82;;
6735;SDS011;3405;50.576;12.364;2023-07-28T10:33:26;1.50;;;0.80;;
6735;SDS011;3405;50.576;12.364;2023-07-28T10:35:53;0.68;;;0.68;;
6735;SDS011;3405;50.576;12.364;2023-07-28T10:38:29;2.08;;;0.90;;
6735;SDS011;3405;50.576;12.364;2023-07-28T10:41:05;1.67;;;0.77;;
6735;SDS011;3405;50.576;12.364;2023-07-28T10:43:32;0.90;;;0.77;;
6735;SDS011;3405;50.576;12.364;2023-07-28T10:45:58;3.13;;;0.70;;
6735;SDS011;3405;50.576;12.364;2023-07-28T10:48:25;0.73;;;0.60;;
6735;SDS011;3405;50.576;12.364;2023-07-28T10:50:51;0.60;;;0.60;;
6735;SDS011;3405;50.576;12.364;2023-07-28T10:53:17;0.60;;;0.55;;
6735;SDS011;3405;50.576;12.364;2023-07-28T10:55:43;1.08;;;0.98;;
6735;SDS011;3405;50.576;12.364;2023-07-28T10:58:09;0.73;;;0.70;;
6735;SDS011;3405;50.576;12.364;2023-07-28T11:00:35;0.60;;;0.60;;
6735;SDS011;3405;50.576;12.364;2023-07-28T11:03:01;0.85;;;0.52;;
6735;SDS011;3405;50.576;12.364;2023-07-28T11:05:28;0.75;;;0.70;;
6735;SDS011;3405;50.576;12.364;2023-07-28T11:07:55;1.83;;;0.80;;
6735;SDS011;3405;50.576;12.364;2023-07-28T11:10:21;1.58;;;0.50;;
6735;SDS011;3405;50.576;12.364;2023-07-28T11:12:48;0.50;;;0.50;;
6735;SDS011;3405;50.576;12.364;2023-07-28T11:15:14;0.65;;;0.57;;
6735;SDS011;3405;50.576;12.364;2023-07-28T11:17:43;1.42;;;0.55;;
6735;SDS011;3405;50.576;12.364;2023-07-28T11:22:46;1.48;;;0.70;;
6735;SDS011;3405;50.576;12.364;2023-07-28T11:25:12;1.25;;;0.63;;
6735;SDS011;3405;50.576;12.364;2023-07-28T11:27:39;0.60;;;0.60;;
6735;SDS011;3405;50.576;12.364;2023-07-28T11:30:08;0.95;;;0.80;;
6735;SDS011;3405;50.576;12.364;2023-07-28T11:32:36;2.05;;;0.50;;
6735;SDS011;3405;50.576;12.364;2023-07-28T11:35:05;0.60;;;0.60;;
6735;SDS011;3405;50.576;12.364;2023-07-28T11:37:35;1.00;;;0.80;;
6735;SDS011;3405;50.576;12.364;2023-07-28T11:40:02;0.80;;;0.70;;
6735;SDS011;3405;50.576;12.364;2023-07-28T11:42:31;1.75;;;0.70;;
6735;SDS011;3405;50.576;12.364;2023-07-28T11:44:57;9.80;;;0.80;;
6735;SDS011;3405;50.576;12.364;2023-07-28T11:47:24;0.77;;;0.77;;
6735;SDS011;3405;50.576;12.364;2023-07-28T11:49:50;1.23;;;0.70;;
6735;SDS011;3405;50.576;12.364;2023-07-28T11:52:16;0.80;;;0.80;;
6735;SDS011;3405;50.576;12.364;2023-07-28T11:54:43;2.30;;;0.70;;
6735;SDS011;3405;50.576;12.364;2023-07-28T11:57:10;1.83;;;0.75;;
6735;SDS011;3405;50.576;12.364;2023-07-28T11:59:36;0.80;;;0.80;;
6735;SDS011;3405;50.576;12.364;2023-07-28T12:02:02;0.98;;;0.80;;
6735;SDS011;3405;50.576;12.364;2023-07-28T12:04:30;2.22;;;0.80;;
6735;SDS011;3405;50.576;12.364;2023-07-28T12:07:00;0.80;;;0.70;;
6735;SDS011;3405;50.576;12.364;2023-07-28T12:09:27;1.30;;;0.60;;
6735;SDS011;3405;50.576;12.364;2023-07-28T12:11:53;1.75;;;0.60;;
6735;SDS011;3405;50.576;12.364;2023-07-28T12:14:32;0.73;;;0.70;;
6735;SDS011;3405;50.576;12.364;2023-07-28T12:16:58;2.88;;;0.90;;
6735;SDS011;3405;50.576;12.364;2023-07-28T12:19:26;0.98;;;0.90;;
6735;SDS011;3405;50.576;12.364;2023-07-28T12:21:52;0.70;;;0.70;;
6735;SDS011;3405;50.576;12.364;2023-07-28T12:24:18;1.17;;;0.60;;
6735;SDS011;3405;50.576;12.364;2023-07-28T12:26:45;0.70;;;0.70;;
6735;SDS011;3405;50.576;12.364;2023-07-28T12:29:12;0.80;;;0.80;;
6735;SDS011;3405;50.576;12.364;2023-07-28T12:31:38;1.58;;;0.70;;
6735;SDS011;3405;50.576;12.364;2023-07-28T12:34:04;2.00;;;0.80;;
6735;SDS011;3405;50.576;12.364;2023-07-28T12:36:30;1.20;;;0.80;;
6735;SDS011;3405;50.576;12.364;2023-07-28T12:38:56;0.70;;;0.70;;
6735;SDS011;3405;50.576;12.364;2023-07-28T12:41:23;0.70;;;0.70;;
6735;SDS011;3405;50.576;12.364;2023-07-28T12:43:49;0.70;;;0.70;;
6735;SDS011;3405;50.576;12.364;2023-07-28T12:46:15;0.80;;;0.80;;
6735;SDS011;3405;50.576;12.364;2023-07-28T12:48:41;1.17;;;0.75;;
6735;SDS011;3405;50.576;12.364;2023-07-28T12:51:07;0.90;;;0.90;;
6735;SDS011;3405;50.576;12.364;2023-07-28T12:53:36;0.55;;;0.55;;
6735;SDS011;3405;50.576;12.364;2023-07-28T12:56:02;0.80;;;0.80;;
6735;SDS011;3405;50.576;12.364;2023-07-28T12:58:27;1.02;;;0.80;;
6735;SDS011;3405;50.576;12.364;2023-07-28T13:00:54;0.50;;;0.50;;
6735;SDS011;3405;50.576;12.364;2023-07-28T13:03:21;0.70;;;0.70;;
6735;SDS011;3405;50.576;12.364;2023-07-28T13:05:47;1.52;;;0.93;;
6735;SDS011;3405;50.576;12.364;2023-07-28T13:08:13;0.80;;;0.80;;
6735;SDS011;3405;50.576;12.364;2023-07-28T13:10:39;0.80;;;0.77;;
6735;SDS011;3405;50.576;12.364;2023-07-28T13:13:05;0.80;;;0.80;;
6735;SDS011;3405;50.576;12.364;2023-07-28T13:15:31;1.95;;;0.70;;
6735;SDS011;3405;50.576;12.364;2023-07-28T13:17:57;0.80;;;0.80;;
6735;SDS011;3405;50.576;12.364;2023-07-28T13:20:22;0.60;;;0.60;;
6735;SDS011;3405;50.576;12.364;2023-07-28T13:22:48;0.63;;;0.63;;
6735;SDS011;3405;50.576;12.364;2023-07-28T13:25:14;0.60;;;0.60;;
6735;SDS011;3405;50.576;12.364;2023-07-28T13:27:40;2.05;;;0.88;;
6735;SDS011;3405;50.576;12.364;2023-07-28T13:30:06;1.10;;;0.90;;
6735;SDS011;3405;50.576;12.364;2023-07-28T13:32:32;0.60;;;0.60;;
6735;SDS011;3405;50.576;12.364;2023-07-28T13:34:58;3.03;;;0.82;;
6735;SDS011;3405;50.576;12.364;2023-07-28T13:37:24;2.60;;;0.88;;
6735;SDS011;3405;50.576;12.364;2023-07-28T13:39:50;2.10;;;0.80;;
6735;SDS011;3405;50.576;12.364;2023-07-28T13:42:17;3.03;;;1.00;;
6735;SDS011;3405;50.576;12.364;2023-07-28T13:44:43;0.63;;;0.63;;
6735;SDS011;3405;50.576;12.364;2023-07-28T13:47:09;0.57;;;0.57;;
6735;SDS011;3405;50.576;12.364;2023-07-28T13:49:35;0.93;;;0.68;;
6735;SDS011;3405;50.576;12.364;2023-07-28T13:52:02;1.55;;;0.82;;
6735;SDS011;3405;50.576;12.364;2023-07-28T13:54:28;4.00;;;0.90;;
6735;SDS011;3405;50.576;12.364;2023-07-28T13:56:54;2.97;;;1.38;;
6735;SDS011;3405;50.576;12.364;2023-07-28T13:59:20;3.63;;;0.88;;
6735;SDS011;3405;50.576;12.364;2023-07-28T14:01:46;1.95;;;0.70;;
6735;SDS011;3405;50.576;12.364;2023-07-28T14:04:12;0.60;;;0.60;;
6735;SDS011;3405;50.576;12.364;2023-07-28T14:06:39;1.38;;;0.50;;
6735;SDS011;3405;50.576;12.364;2023-07-28T14:09:05;0.60;;;0.60;;
6735;SDS011;3405;50.576;12.364;2023-07-28T14:11:31;1.85;;;0.60;;
6735;SDS011;3405;50.576;12.364;2023-07-28T14:13:57;0.50;;;0.50;;
6735;SDS011;3405;50.576;12.364;2023-07-28T14:16:23;0.65;;;0.57;;
6735;SDS011;3405;50.576;12.364;2023-07-28T14:18:49;0.43;;;0.43;;
6735;SDS011;3405;50.576;12.364;2023-07-28T14:21:15;0.55;;;0.55;;
6735;SDS011;3405;50.576;12.364;2023-07-28T14:23:41;0.98;;;0.60;;
6735;SDS011;3405;50.576;12.364;2023-07-28T14:26:07;0.50;;;0.50;;
6735;SDS011;3405;50.576;12.364;2023-07-28T14:28:33;0.65;;;0.65;;
6735;SDS011;3405;50.576;12.364;2023-07-28T14:30:59;2.63;;;0.60;;
6735;SDS011;3405;50.576;12.364;2023-07-28T14:33:25;0.60;;;0.60;;
6735;SDS011;3405;50.576;12.364;2023-07-28T14:35:51;0.60;;;0.60;;
6735;SDS011;3405;50.576;12.364;2023-07-28T14:38:18;0.60;;;0.60;;
6735;SDS011;3405;50.576;12.364;2023-07-28T14:40:44;0.65;;;0.65;;
6735;SDS011;3405;50.576;12.364;2023-07-28T14:43:14;0.50;;;0.50;;
6735;SDS011;3405;50.576;12.364;2023-07-28T14:45:41;0.40;;;0.40;;
6735;SDS011;3405;50.576;12.364;2023-07-28T14:48:07;0.47;;;0.43;;
6735;SDS011;3405;50.576;12.364;2023-07-28T14:50:33;2.05;;;0.60;;
6735;SDS011;3405;50.576;12.364;2023-07-28T14:52:58;0.82;;;0.50;;
6735;SDS011;3405;50.576;12.364;2023-07-28T14:55:25;0.47;;;0.47;;
6735;SDS011;3405;50.576;12.364;2023-07-28T14:57:51;0.60;;;0.60;;
6735;SDS011;3405;50.576;12.364;2023-07-28T15:00:17;0.50;;;0.50;;
6735;SDS011;3405;50.576;12.364;2023-07-28T15:02:43;0.50;;;0.50;;
6735;SDS011;3405;50.576;12.364;2023-07-28T15:05:09;0.50;;;0.50;;
6735;SDS011;3405;50.576;12.364;2023-07-28T15:07:35;0.57;;;0.57;;